Zemst, Belgium
Current Conditions -  °F | °C
As of 11:20 PM on Sunday 23 Nov 2014 (Local Time) from EBBR Reporting Station
Drizzle Drizzle  
Wind Chill: 10°   Ceiling: 500
Heat Index: 10°   Visibility: 2.3mi
Dew Point:   Wind: 13mph
Humidity: 94%   Direction: 320°NW
Pressure: 30.03"   Gusts: NA
Location:  50.98°N, 4.46°E
Report Text: EBBR 232220Z 32011KT 3800 -DZ SCT003 BKN005 10/09 Q1017 TEMPO 2000 RADZ BKN004
Loading
Personal Weather Stations






























Interactive Weather Map New forecast layout! Learn more

10-Day Weather Forecast

Advertisements
Track Severe Weather on mobile